Time;durP1;ratioP1;P1;durP2;ratioP2;P2;SDS_P1;SDS_P2;PMS_P1;PMS_P2;Temp;Humidity;BMP_temperature;BMP_pressure;BME280_temperature;BME280_humidity;BME280_pressure;Samples;Min_cycle;Max_cycle;Signal;HPM_P1;HPM_P2
2023/05/22 00:02:01;;;;;;;20.13;13.10;;;18.50;99.90;;;;;;5097158;28;20089;-71
2023/05/22 00:04:28;;;;;;;18.10;13.37;;;18.50;99.90;;;;;;5096523;28;20088;-72
2023/05/22 00:06:55;;;;;;;17.55;13.27;;;18.50;99.90;;;;;;5096443;28;20460;-71
2023/05/22 00:09:20;;;;;;;19.55;13.57;;;18.50;99.90;;;;;;5096376;28;20066;-72
2023/05/22 00:11:46;;;;;;;18.40;13.40;;;18.50;99.90;;;;;;5096373;28;20043;-71
2023/05/22 00:14:15;;;;;;;19.50;13.97;;;18.50;99.90;;;;;;5096088;28;20502;-71
2023/05/22 00:16:41;;;;;;;22.95;13.05;;;18.50;99.90;;;;;;5096310;28;20071;-72
2023/05/22 00:19:11;;;;;;;18.55;13.77;;;18.50;99.90;;;;;;5096107;28;20047;-71
2023/05/22 00:21:38;;;;;;;19.45;13.80;;;18.50;99.90;;;;;;5095011;28;20403;-72
2023/05/22 00:24:04;;;;;;;20.05;13.27;;;18.40;99.90;;;;;;5096149;28;20082;-71
2023/05/22 00:26:30;;;;;;;19.03;13.53;;;18.40;99.90;;;;;;5096076;28;20112;-70
2023/05/22 00:28:55;;;;;;;23.77;13.47;;;18.30;99.90;;;;;;5096054;28;20040;-72
2023/05/22 00:31:21;;;;;;;19.33;14.07;;;18.30;99.90;;;;;;5096049;28;20036;-71
2023/05/22 00:33:47;;;;;;;20.33;13.73;;;18.30;99.90;;;;;;5096199;28;20051;-72
2023/05/22 00:36:13;;;;;;;19.10;13.77;;;18.30;99.90;;;;;;5095913;28;20067;-71
2023/05/22 00:38:38;;;;;;;18.97;14.10;;;18.30;99.90;;;;;;5095896;28;20048;-71
2023/05/22 00:41:05;;;;;;;18.67;12.90;;;18.40;99.90;;;;;;5095711;28;20032;-71
2023/05/22 00:43:31;;;;;;;;;;;18.30;99.90;;;;;;5096176;28;20359;-72
2023/05/22 00:45:57;;;;;;;19.35;13.90;;;18.30;99.90;;;;;;5096114;28;19922;-72
2023/05/22 00:48:23;;;;;;;20.20;13.50;;;18.30;99.90;;;;;;5095666;28;20048;-72
2023/05/22 00:50:49;;;;;;;18.38;13.23;;;18.30;99.90;;;;;;5095621;28;20047;-72
2023/05/22 00:53:15;;;;;;;;;;;18.20;99.90;;;;;;5096013;28;20048;-71
2023/05/22 00:55:42;;;;;;;18.88;14.30;;;18.20;99.90;;;;;;5094981;28;20019;-71
2023/05/22 00:58:12;;;;;;;20.30;15.23;;;18.20;99.90;;;;;;5095275;28;20051;-72
2023/05/22 01:00:40;;;;;;;21.58;14.32;;;18.10;99.90;;;;;;5095398;28;20576;-71
2023/05/22 01:03:06;;;;;;;21.13;14.75;;;18.10;99.90;;;;;;5095152;28;20556;-72
2023/05/22 01:05:33;;;;;;;22.27;14.30;;;18.10;99.90;;;;;;5095305;28;20151;-71
2023/05/22 01:07:59;;;;;;;20.13;14.23;;;18.00;99.90;;;;;;5094191;28;20383;-71
2023/05/22 01:10:26;;;;;;;21.00;14.53;;;17.90;99.90;;;;;;5095170;28;20042;-71
2023/05/22 01:13:03;;;;;;;21.92;14.23;;;18.00;99.90;;;;;;5095164;28;20039;-72
2023/05/22 01:15:47;;;;;;;19.67;14.48;;;18.00;99.90;;;;;;5095613;28;20119;-72
2023/05/22 01:18:29;;;;;;;19.42;13.93;;;18.00;99.90;;;;;;5095062;28;20112;-72
2023/05/22 01:21:25;;;;;;;19.02;14.85;;;18.00;99.90;;;;;;5095021;28;20376;-70
2023/05/22 01:24:10;;;;;;;21.33;14.38;;;18.00;99.90;;;;;;5095313;28;20051;-71
2023/05/22 01:26:36;;;;;;;19.38;14.23;;;18.00;99.90;;;;;;5094950;28;20036;-71
2023/05/22 01:29:22;;;;;;;19.00;13.90;;;18.10;99.90;;;;;;5094890;28;20047;-70
2023/05/22 01:31:51;;;;;;;22.13;14.95;;;18.10;99.90;;;;;;5094828;28;20048;-70
2023/05/22 01:34:18;;;;;;;22.38;14.63;;;18.10;99.90;;;;;;5094767;28;20082;-72
2023/05/22 01:36:46;;;;;;;19.58;14.35;;;18.00;99.90;;;;;;5094727;28;20141;-71
2023/05/22 01:39:13;;;;;;;19.02;13.88;;;18.00;99.90;;;;;;5094830;28;20050;-71
2023/05/22 01:41:39;;;;;;;;;;;18.00;99.90;;;;;;5094928;28;20047;-70
2023/05/22 01:44:05;;;;;;;18.10;14.05;;;18.00;99.90;;;;;;5094622;28;19927;-71
2023/05/22 01:46:30;;;;;;;19.07;13.10;;;17.90;99.90;;;;;;5094546;28;20089;-73
2023/05/22 01:48:57;;;;;;;20.63;14.00;;;17.90;99.90;;;;;;5094842;28;20123;-71
2023/05/22 01:51:44;;;;;;;20.90;14.63;;;17.90;99.90;;;;;;5094731;28;20076;-71
2023/05/22 01:54:29;;;;;;;19.73;14.23;;;17.80;99.90;;;;;;5093320;28;20089;-72
2023/05/22 01:57:03;;;;;;;19.40;13.88;;;17.80;99.90;;;;;;5094413;28;20048;-70
2023/05/22 01:59:36;;;;;;;20.40;14.23;;;17.60;99.90;;;;;;5094549;28;20055;-72
2023/05/22 02:02:07;;;;;;;16.80;12.50;;;17.80;99.90;;;;;;5094525;28;20036;-72
2023/05/22 02:04:37;;;;;;;18.23;13.52;;;17.80;99.90;;;;;;5094388;28;20083;-72
2023/05/22 02:07:03;;;;;;;19.05;13.63;;;17.80;99.90;;;;;;5094514;28;20048;-71
2023/05/22 02:09:30;;;;;;;18.58;12.75;;;17.70;99.90;;;;;;5094192;28;20047;-71
2023/05/22 02:11:59;;;;;;;;;;;17.70;99.90;;;;;;5094756;28;20062;-71
2023/05/22 02:14:25;;;;;;;16.65;12.35;;;17.70;99.90;;;;;;5094084;28;19916;-70
2023/05/22 02:16:52;;;;;;;17.63;12.57;;;17.70;99.90;;;;;;5094284;28;20090;-72
2023/05/22 02:19:17;;;;;;;18.42;13.43;;;17.70;99.90;;;;;;5094087;28;20046;-71
2023/05/22 02:21:43;;;;;;;20.43;13.93;;;17.70;99.90;;;;;;5094175;28;20406;-72
2023/05/22 02:24:09;;;;;;;21.63;14.47;;;17.70;99.90;;;;;;5094403;28;20035;-72
2023/05/22 02:26:35;;;;;;;20.33;14.07;;;17.70;99.90;;;;;;5093911;28;20040;-71
2023/05/22 02:29:02;;;;;;;17.45;12.27;;;17.70;99.90;;;;;;5093911;28;20425;-72
2023/05/22 02:31:28;;;;;;;18.95;13.13;;;17.70;99.90;;;;;;5093593;28;20040;-70
2023/05/22 02:33:53;;;;;;;17.93;13.07;;;17.70;99.90;;;;;;5093819;28;20048;-71
2023/05/22 02:36:19;;;;;;;20.93;12.97;;;17.60;99.90;;;;;;5093599;28;20066;-71
2023/05/22 02:38:45;;;;;;;18.97;14.07;;;17.70;99.90;;;;;;5092618;28;20048;-71
2023/05/22 02:41:10;;;;;;;17.50;12.20;;;17.60;99.90;;;;;;5093812;28;20123;-72
2023/05/22 02:43:36;;;;;;;15.30;11.73;;;17.70;99.90;;;;;;5093770;28;20036;-72
2023/05/22 02:46:01;;;;;;;19.40;13.47;;;17.60;99.90;;;;;;5093636;28;20115;-71
2023/05/22 02:48:28;;;;;;;16.20;12.80;;;17.60;99.90;;;;;;5093708;28;20036;-71
2023/05/22 02:50:54;;;;;;;20.10;13.68;;;17.60;99.90;;;;;;5094314;28;20044;-71
2023/05/22 02:53:19;;;;;;;18.80;14.20;;;17.60;99.90;;;;;;5093653;28;20051;-71
2023/05/22 02:55:45;;;;;;;17.23;13.00;;;17.60;99.90;;;;;;5093673;28;20035;-72
2023/05/22 02:58:11;;;;;;;19.23;13.57;;;17.60;99.90;;;;;;5093598;28;20040;-72
2023/05/22 03:00:37;;;;;;;17.80;13.67;;;17.60;99.90;;;;;;5093515;28;20036;-72
2023/05/22 03:03:06;;;;;;;17.57;13.20;;;17.60;99.90;;;;;;5093542;28;20113;-71
2023/05/22 03:05:32;;;;;;;19.67;13.25;;;17.60;99.90;;;;;;5093314;28;20278;-70
2023/05/22 03:07:58;;;;;;;18.95;13.27;;;17.60;99.90;;;;;;5093684;28;20536;-71
2023/05/22 03:10:24;;;;;;;18.47;13.80;;;17.60;99.90;;;;;;5093562;28;20040;-72
2023/05/22 03:12:53;;;;;;;20.77;14.10;;;17.70;99.90;;;;;;5093482;28;20036;-71
2023/05/22 03:15:19;;;;;;;16.45;12.60;;;17.60;99.90;;;;;;5092201;28;20085;-71
2023/05/22 03:17:44;;;;;;;17.80;13.25;;;17.70;99.90;;;;;;5093440;28;20114;-72
2023/05/22 03:20:15;;;;;;;20.53;13.80;;;17.70;99.90;;;;;;5095425;28;20201;-71
2023/05/22 03:22:44;;;;;;;18.58;13.43;;;17.60;99.90;;;;;;5097371;28;20040;-71
2023/05/22 03:25:10;;;;;;;22.17;14.45;;;17.60;99.90;;;;;;5097064;28;20082;-70
2023/05/22 03:27:38;;;;;;;16.57;12.17;;;17.60;99.90;;;;;;5096598;28;20078;-70
2023/05/22 03:30:04;;;;;;;20.90;14.30;;;17.70;99.90;;;;;;5096978;28;20040;-71
2023/05/22 03:32:30;;;;;;;;;;;17.70;99.90;;;;;;5097453;28;20383;-70
2023/05/22 03:34:55;;;;;;;18.80;13.15;;;17.70;99.90;;;;;;5097039;28;19923;-71
2023/05/22 03:37:21;;;;;;;18.27;13.77;;;17.60;99.90;;;;;;5097049;28;20036;-71
2023/05/22 03:39:47;;;;;;;17.10;13.00;;;17.60;99.90;;;;;;5096096;28;20427;-71
2023/05/22 03:42:12;;;;;;;19.13;14.30;;;17.60;99.90;;;;;;5096947;28;20048;-71
2023/05/22 03:44:38;;;;;;;16.53;12.00;;;17.60;99.90;;;;;;5096622;28;20388;-73
2023/05/22 03:47:04;;;;;;;17.63;13.60;;;17.60;99.90;;;;;;5096685;28;20460;-71
2023/05/22 03:49:30;;;;;;;18.73;13.83;;;17.60;99.90;;;;;;5096476;28;20086;-71
2023/05/22 03:51:55;;;;;;;16.40;11.23;;;17.60;99.90;;;;;;5096789;28;20452;-72
2023/05/22 03:54:21;;;;;;;17.60;13.47;;;17.60;99.90;;;;;;5096409;28;20032;-72
2023/05/22 03:56:47;;;;;;;16.03;11.97;;;17.60;99.90;;;;;;5096681;28;20048;-71
2023/05/22 03:59:12;;;;;;;20.23;13.60;;;17.60;99.90;;;;;;5096633;28;20380;-71
2023/05/22 04:01:38;;;;;;;20.30;13.07;;;17.60;99.90;;;;;;5096509;28;20051;-70
2023/05/22 04:04:04;;;;;;;17.50;11.23;;;17.50;99.90;;;;;;5096410;28;20418;-71
2023/05/22 04:06:31;;;;;;;17.95;13.27;;;17.50;99.90;;;;;;5096027;28;20502;-70
2023/05/22 04:08:57;;;;;;;20.52;13.48;;;17.50;99.90;;;;;;5096769;28;20040;-70
2023/05/22 04:11:23;;;;;;;20.08;13.00;;;17.60;99.90;;;;;;5096538;28;20517;-71
2023/05/22 04:13:49;;;;;;;17.20;12.87;;;17.60;99.90;;;;;;5096244;28;20119;-72
2023/05/22 04:16:16;;;;;;;19.15;12.93;;;17.50;99.90;;;;;;5096365;28;20051;-72
2023/05/22 04:18:42;;;;;;;17.42;12.70;;;17.50;99.90;;;;;;5096262;28;20040;-71
2023/05/22 04:21:08;;;;;;;20.20;14.73;;;17.60;99.90;;;;;;5095877;28;20422;-71
2023/05/22 04:23:34;;;;;;;22.05;14.65;;;17.60;99.90;;;;;;5096681;28;20317;-71
2023/05/22 04:26:01;;;;;;;18.45;12.32;;;17.60;99.90;;;;;;5096294;28;20456;-71
2023/05/22 04:28:29;;;;;;;17.80;14.15;;;17.50;99.90;;;;;;5095819;28;20475;-71
2023/05/22 04:30:56;;;;;;;20.45;14.32;;;17.50;99.90;;;;;;5094746;28;20039;-71
2023/05/22 04:33:23;;;;;;;17.20;12.63;;;17.50;99.90;;;;;;5095971;28;20040;-72
2023/05/22 04:35:49;;;;;;;17.08;12.90;;;17.50;99.90;;;;;;5096788;28;20032;-71
2023/05/22 04:38:17;;;;;;;19.25;13.65;;;17.50;99.90;;;;;;5095982;28;20422;-72
2023/05/22 04:40:43;;;;;;;20.67;13.93;;;17.50;99.90;;;;;;5095994;28;20040;-71
2023/05/22 04:43:10;;;;;;;16.98;12.90;;;17.50;99.90;;;;;;5096067;28;20410;-72
2023/05/22 04:45:36;;;;;;;18.92;13.27;;;17.50;99.90;;;;;;5095720;28;20117;-71
2023/05/22 04:48:01;;;;;;;21.23;14.13;;;17.50;99.90;;;;;;5096255;28;20131;-71
2023/05/22 04:50:31;;;;;;;17.53;13.30;;;17.50;99.90;;;;;;5095695;28;20513;-71
2023/05/22 04:52:58;;;;;;;19.05;13.10;;;17.50;99.90;;;;;;5095626;28;20044;-71
2023/05/22 04:55:24;;;;;;;17.75;13.50;;;17.50;99.90;;;;;;5095602;28;20051;-71
2023/05/22 04:57:51;;;;;;;19.33;13.87;;;17.50;99.90;;;;;;5095563;28;20387;-72
2023/05/22 05:00:17;;;;;;;18.60;13.38;;;17.50;99.90;;;;;;5095353;28;20040;-72
2023/05/22 05:02:43;;;;;;;18.00;13.13;;;17.50;99.90;;;;;;5095468;28;20040;-71
2023/05/22 05:05:09;;;;;;;16.53;12.90;;;17.50;99.90;;;;;;5094225;28;20089;-71
2023/05/22 05:07:38;;;;;;;18.97;13.50;;;17.50;99.90;;;;;;5095520;28;20036;-71
2023/05/22 05:10:04;;;;;;;21.63;13.85;;;17.50;99.90;;;;;;5095108;28;20466;-72
2023/05/22 05:12:29;;;;;;;19.55;13.68;;;17.40;99.90;;;;;;5094937;28;20472;-72
2023/05/22 05:14:55;;;;;;;17.10;12.53;;;17.40;99.90;;;;;;5095142;28;20044;-71
2023/05/22 05:17:24;;;;;;;16.10;12.70;;;17.40;99.90;;;;;;5095063;28;20459;-72
2023/05/22 05:19:49;;;;;;;18.67;13.85;;;17.40;99.90;;;;;;5094944;28;20479;-72
2023/05/22 05:22:15;;;;;;;16.33;12.87;;;17.40;99.90;;;;;;5095000;28;20036;-71
2023/05/22 05:24:40;;;;;;;19.03;12.93;;;17.40;99.90;;;;;;5094969;28;20035;-72
2023/05/22 05:27:15;;;;;;;20.07;12.67;;;17.50;99.90;;;;;;5094881;28;20422;-72
2023/05/22 05:29:41;;;;;;;17.35;12.77;;;17.50;99.90;;;;;;5094792;28;20048;-72
2023/05/22 05:32:07;;;;;;;16.10;12.23;;;17.70;99.90;;;;;;5094903;28;20043;-71
2023/05/22 05:34:33;;;;;;;15.95;12.52;;;17.60;99.90;;;;;;5094679;28;20044;-71
2023/05/22 05:37:01;;;;;;;19.07;12.77;;;17.50;99.90;;;;;;5094762;28;20043;-71
2023/05/22 05:39:27;;;;;;;15.25;11.55;;;17.60;99.90;;;;;;5094758;28;20119;-71
2023/05/22 05:41:55;;;;;;;16.67;11.83;;;17.60;99.90;;;;;;5093887;28;20124;-72
2023/05/22 05:44:21;;;;;;;17.40;13.07;;;17.50;99.90;;;;;;5094476;28;20357;-71
2023/05/22 05:46:47;;;;;;;16.20;12.67;;;17.50;99.90;;;;;;5094579;28;20123;-72
2023/05/22 05:49:12;;;;;;;15.73;12.17;;;17.50;99.90;;;;;;5094811;28;20177;-72
2023/05/22 05:51:38;;;;;;;17.07;12.27;;;17.50;99.90;;;;;;5094672;28;20376;-71
2023/05/22 05:54:04;;;;;;;14.83;12.40;;;17.60;99.90;;;;;;5094493;28;20456;-71
2023/05/22 05:56:30;;;;;;;15.02;11.57;;;17.60;99.90;;;;;;5093939;28;20353;-72
2023/05/22 05:58:56;;;;;;;19.23;12.33;;;17.60;99.90;;;;;;5094379;28;20043;-72
2023/05/22 06:01:24;;;;;;;16.43;12.33;;;17.60;99.90;;;;;;5092830;28;20039;-72
2023/05/22 06:03:50;;;;;;;15.40;11.82;;;17.70;99.90;;;;;;5094247;28;20039;-71
2023/05/22 06:06:24;;;;;;;15.60;10.50;;;17.70;99.90;;;;;;5094000;28;20066;-71
2023/05/22 06:08:50;;;;;;;17.60;12.23;;;17.80;99.90;;;;;;5094178;28;20468;-71
2023/05/22 06:11:16;;;;;;;15.53;12.53;;;17.80;99.90;;;;;;5094094;28;20040;-71
2023/05/22 06:13:50;;;;;;;16.67;12.23;;;17.80;99.90;;;;;;5094044;28;20375;-72
2023/05/22 06:16:15;;;;;;;14.30;11.10;;;17.80;99.90;;;;;;5094103;28;20047;-72
2023/05/22 06:18:41;;;;;;;20.10;12.33;;;17.90;99.90;;;;;;5094277;28;20032;-71
2023/05/22 06:21:07;;;;;;;17.90;13.47;;;17.90;99.90;;;;;;5093959;28;20501;-71
2023/05/22 06:23:32;;;;;;;15.67;11.67;;;18.00;99.90;;;;;;5094271;28;20043;-71
2023/05/22 06:25:58;;;;;;;16.10;12.43;;;18.00;99.90;;;;;;5093872;28;20109;-72
2023/05/22 06:28:23;;;;;;;16.67;11.90;;;18.00;99.90;;;;;;5093968;28;20101;-72
2023/05/22 06:30:49;;;;;;;17.07;12.00;;;18.10;99.90;;;;;;5093884;28;20040;-71
2023/05/22 06:33:15;;;;;;;20.80;12.57;;;18.20;99.90;;;;;;5093910;28;20054;-70
2023/05/22 06:35:41;;;;;;;18.17;11.60;;;18.30;99.90;;;;;;5093811;28;20824;-71
2023/05/22 06:38:06;;;;;;;14.10;12.13;;;18.50;99.90;;;;;;5093910;28;20491;-72
2023/05/22 06:40:32;;;;;;;13.50;12.03;;;18.60;99.90;;;;;;5093682;28;20032;-71
2023/05/22 06:42:58;;;;;;;17.20;11.83;;;18.70;99.90;;;;;;5094221;28;20129;-72
2023/05/22 06:45:24;;;;;;;15.65;10.65;;;18.70;99.90;;;;;;5093727;28;20050;-72
2023/05/22 06:47:54;;;;;;;15.63;10.80;;;18.80;99.90;;;;;;5093686;28;20040;-72
2023/05/22 06:50:21;;;;;;;14.20;10.60;;;18.90;99.90;;;;;;5093914;28;20043;-73
2023/05/22 06:52:47;;;;;;;12.10;10.60;;;19.00;99.90;;;;;;5093893;28;20446;-72
2023/05/22 06:55:12;;;;;;;16.98;11.63;;;19.10;99.90;;;;;;5095926;28;20040;-71
2023/05/22 06:57:38;;;;;;;12.73;10.30;;;19.20;99.90;;;;;;5097765;28;20139;-71
2023/05/22 07:00:08;;;;;;;14.77;10.43;;;19.20;99.90;;;;;;5098223;28;20072;-71
2023/05/22 07:02:34;;;;;;;17.67;11.52;;;19.30;99.90;;;;;;5097759;28;20040;-72
2023/05/22 07:04:59;;;;;;;12.10;10.17;;;19.40;99.90;;;;;;5097890;28;20043;-72
2023/05/22 07:07:25;;;;;;;14.63;11.90;;;19.40;99.90;;;;;;5097874;28;20110;-71
2023/05/22 07:09:51;;;;;;;16.17;10.90;;;19.30;99.90;;;;;;5097561;28;20031;-71
2023/05/22 07:12:16;;;;;;;13.97;10.60;;;19.50;99.90;;;;;;5097582;28;20126;-72
2023/05/22 07:14:42;;;;;;;16.57;11.93;;;19.40;99.90;;;;;;5097370;28;20051;-71
2023/05/22 07:17:07;;;;;;;12.33;10.60;;;19.40;99.90;;;;;;5097466;28;20044;-72
2023/05/22 07:19:34;;;;;;;15.87;10.73;;;19.50;99.90;;;;;;5097306;28;20036;-71
2023/05/22 07:22:00;;;;;;;18.35;10.95;;;19.60;99.90;;;;;;5097380;28;20097;-72
2023/05/22 07:24:26;;;;;;;14.60;11.53;;;19.60;99.90;;;;;;5097365;28;20039;-72
2023/05/22 07:26:51;;;;;;;15.17;11.43;;;19.70;99.90;;;;;;5097119;28;20036;-72
2023/05/22 07:29:17;;;;;;;14.20;11.90;;;19.70;99.90;;;;;;5097242;28;20044;-71
2023/05/22 07:31:42;;;;;;;15.40;11.10;;;19.70;99.90;;;;;;5097156;28;20040;-70
2023/05/22 07:34:08;;;;;;;13.00;10.97;;;19.70;99.90;;;;;;5097071;28;20050;-71
2023/05/22 07:36:34;;;;;;;14.97;12.27;;;19.70;99.90;;;;;;5130023;27;20036;-71
2023/05/22 07:39:00;;;;;;;17.13;11.93;;;19.90;99.90;;;;;;5097054;28;20036;-71
2023/05/22 07:41:28;;;;;;;14.07;11.77;;;19.80;99.90;;;;;;5096849;28;20286;-72
2023/05/22 07:43:54;;;;;;;14.25;11.30;;;20.00;99.90;;;;;;5097351;28;20050;-71
2023/05/22 07:46:20;;;;;;;14.53;11.87;;;20.20;99.90;;;;;;5097263;28;20387;-71
2023/05/22 07:48:45;;;;;;;13.23;11.50;;;20.50;99.90;;;;;;5096979;28;20117;-73
2023/05/22 07:51:12;;;;;;;14.27;11.93;;;20.70;99.90;;;;;;5096852;28;20128;-72
2023/05/22 07:53:38;;;;;;;18.23;11.55;;;20.90;99.90;;;;;;5096627;28;20151;-72
2023/05/22 07:56:04;;;;;;;14.68;11.95;;;21.20;99.90;;;;;;5096595;28;20543;-72
2023/05/22 07:58:30;;;;;;;15.30;10.93;;;21.20;99.90;;;;;;5096353;28;20067;-73
2023/05/22 08:00:56;;;;;;;15.03;11.63;;;21.20;99.90;;;;;;5096502;28;20075;-71
2023/05/22 08:03:30;;;;;;;14.33;10.90;;;21.30;99.90;;;;;;5096660;28;20383;-72
2023/05/22 08:05:56;;;;;;;13.80;11.25;;;21.30;99.90;;;;;;5096181;28;20052;-72
2023/05/22 08:08:21;;;;;;;15.00;11.43;;;21.20;99.90;;;;;;5096514;28;20043;-71
2023/05/22 08:10:47;;;;;;;15.70;10.67;;;21.20;99.90;;;;;;5096139;28;20123;-72
2023/05/22 08:13:15;;;;;;;18.83;10.55;;;21.10;99.90;;;;;;5096435;28;20040;-73
2023/05/22 08:15:41;;;;;;;14.75;11.40;;;21.10;99.90;;;;;;5096137;28;20475;-73
2023/05/22 08:18:06;;;;;;;15.03;11.13;;;21.00;99.90;;;;;;5096046;28;20089;-71
2023/05/22 08:20:32;;;;;;;13.90;11.00;;;21.00;99.90;;;;;;5096161;28;20044;-72
2023/05/22 08:22:58;;;;;;;11.37;10.10;;;21.00;99.90;;;;;;5096238;28;20043;-72
2023/05/22 08:25:26;;;;;;;14.10;11.10;;;20.90;99.90;;;;;;5096064;28;20040;-71
2023/05/22 08:27:51;;;;;;;14.45;10.27;;;20.90;99.90;;;;;;5096027;28;20411;-71
2023/05/22 08:30:17;;;;;;;12.10;9.50;;;21.00;99.90;;;;;;5095995;28;20036;-71
2023/05/22 08:32:43;;;;;;;14.10;10.50;;;21.00;99.90;;;;;;5096007;28;20093;-71
2023/05/22 08:35:09;;;;;;;11.93;9.33;;;21.20;99.90;;;;;;5096146;28;20547;-73
2023/05/22 08:37:34;;;;;;;11.75;9.63;;;21.20;99.90;;;;;;5095891;28;20042;-71
2023/05/22 08:40:00;;;;;;;12.10;9.10;;;21.30;99.90;;;;;;5094320;28;20036;-72
2023/05/22 08:42:26;;;;;;;12.87;8.57;;;21.30;99.90;;;;;;5095842;28;20123;-72
2023/05/22 08:44:54;;;;;;;15.33;9.57;;;21.40;99.90;;;;;;5095561;28;20036;-72
2023/05/22 08:47:22;;;;;;;12.93;10.73;;;21.30;99.90;;;;;;5095930;28;20040;-72
2023/05/22 08:49:50;;;;;;;12.85;10.05;;;21.40;99.90;;;;;;5095713;28;20444;-71
2023/05/22 08:52:22;;;;;;;11.55;9.02;;;21.30;99.90;;;;;;5095606;28;20044;-72
2023/05/22 08:54:55;;;;;;;13.02;8.90;;;21.40;99.90;;;;;;5096435;28;20468;-72
2023/05/22 08:57:20;;;;;;;11.60;8.93;;;21.50;99.90;;;;;;5095502;28;20046;-71
2023/05/22 08:59:47;;;;;;;10.23;8.57;;;21.60;99.90;;;;;;5095736;28;20039;-71
2023/05/22 09:02:13;;;;;;;11.95;8.40;;;21.70;99.90;;;;;;5095400;28;20047;-72
2023/05/22 09:04:41;;;;;;;9.38;8.13;;;21.80;99.90;;;;;;5095351;28;20126;-71
2023/05/22 09:07:07;;;;;;;10.05;8.07;;;21.80;99.90;;;;;;5095766;28;20063;-71
2023/05/22 09:09:40;;;;;;;11.68;7.93;;;21.90;99.90;;;;;;5095335;28;20040;-71
2023/05/22 09:12:10;;;;;;;12.95;8.52;;;22.10;99.90;;;;;;5095160;28;20044;-71
2023/05/22 09:14:40;;;;;;;11.60;7.68;;;22.20;99.90;;;;;;5128419;27;20040;-71
2023/05/22 09:17:08;;;;;;;12.75;8.10;;;22.40;99.90;;;;;;5094492;28;20047;-72
2023/05/22 09:19:33;;;;;;;12.95;7.65;;;22.50;99.90;;;;;;5077193;28;20098;-72
2023/05/22 09:22:04;;;;;;;12.13;8.07;;;22.50;99.90;;;;;;5093766;28;20492;-71
2023/05/22 09:24:30;;;;;;;9.95;8.43;;;22.60;99.90;;;;;;5095241;28;20119;-71
2023/05/22 09:26:55;;;;;;;10.95;7.70;;;22.60;99.90;;;;;;5094926;28;20130;-72
2023/05/22 09:29:21;;;;;;;10.77;7.37;;;22.70;99.90;;;;;;5094827;28;20152;-71
2023/05/22 09:31:47;;;;;;;13.03;7.90;;;22.90;99.90;;;;;;5094857;28;20038;-72
2023/05/22 09:34:13;;;;;;;9.98;6.95;;;23.10;99.90;;;;;;5094756;28;20052;-72
2023/05/22 09:36:39;;;;;;;9.73;7.67;;;23.30;99.90;;;;;;5094754;28;20447;-72
2023/05/22 09:39:05;;;;;;;9.87;7.37;;;23.30;99.90;;;;;;5094767;28;20114;-72
2023/05/22 09:41:38;;;;;;;9.65;7.43;;;23.40;99.90;;;;;;5094497;28;20054;-72
2023/05/22 09:44:14;;;;;;;10.63;7.30;;;23.20;99.90;;;;;;5094621;28;20066;-72
2023/05/22 09:46:41;;;;;;;12.73;8.35;;;23.10;99.90;;;;;;5094478;28;20067;-72
2023/05/22 09:49:07;;;;;;;10.50;7.55;;;23.00;99.90;;;;;;5094276;28;20460;-71
2023/05/22 09:51:35;;;;;;;11.17;8.13;;;22.80;99.90;;;;;;5094878;28;20085;-72
2023/05/22 09:54:02;;;;;;;11.48;8.43;;;22.60;99.90;;;;;;5094517;28;20039;-72
2023/05/22 09:56:34;;;;;;;13.38;7.72;;;22.50;99.90;;;;;;5094345;28;20085;-72
2023/05/22 09:59:00;;;;;;;10.30;8.13;;;22.40;99.90;;;;;;5094378;28;20384;-72
2023/05/22 10:01:27;;;;;;;12.45;7.97;;;22.20;99.90;;;;;;5094102;28;20058;-72
2023/05/22 10:03:55;;;;;;;12.15;7.43;;;22.10;99.90;;;;;;5094529;28;20047;-73
2023/05/22 10:06:22;;;;;;;14.02;7.50;;;22.00;99.90;;;;;;5094330;28;20040;-71
2023/05/22 10:09:00;;;;;;;13.60;7.75;;;22.00;99.90;;;;;;5094482;28;20148;-71
2023/05/22 10:11:31;;;;;;;11.60;7.43;;;21.90;99.90;;;;;;5094210;28;20044;-72
2023/05/22 10:14:01;;;;;;;10.20;7.82;;;21.90;99.90;;;;;;5092664;28;20487;-72
2023/05/22 10:16:28;;;;;;;14.75;8.50;;;21.90;99.90;;;;;;5094482;28;20074;-72
2023/05/22 10:18:55;;;;;;;11.02;7.93;;;21.90;99.90;;;;;;5094034;28;20371;-72
2023/05/22 10:21:21;;;;;;;;;;;21.90;99.90;;;;;;5094363;28;20047;-72
2023/05/22 10:23:48;;;;;;;11.75;7.55;;;21.80;99.90;;;;;;5093955;28;19916;-72
2023/05/22 10:26:16;;;;;;;15.10;8.60;;;21.80;99.90;;;;;;5093917;28;20051;-72
2023/05/22 10:28:46;;;;;;;11.88;7.70;;;21.90;99.90;;;;;;5093769;28;20036;-71
2023/05/22 10:31:36;;;;;;;14.57;7.97;;;22.10;99.90;;;;;;5093975;28;20040;-72
2023/05/22 10:34:06;;;;;;;12.52;8.20;;;22.20;99.90;;;;;;5093880;28;20047;-71
2023/05/22 10:36:50;;;;;;;9.52;7.50;;;22.40;99.90;;;;;;5092939;28;20044;-72
2023/05/22 10:39:27;;;;;;;12.38;7.70;;;22.60;99.90;;;;;;5094537;28;20048;-72
2023/05/22 10:41:53;;;;;;;11.18;8.57;;;22.90;99.90;;;;;;5093701;28;20039;-71
2023/05/22 10:44:18;;;;;;;11.97;7.77;;;23.20;99.90;;;;;;5093723;28;20040;-72
2023/05/22 10:46:49;;;;;;;10.63;6.83;;;23.50;99.90;;;;;;5093754;28;20039;-71
2023/05/22 10:49:24;;;;;;;13.52;8.65;;;23.70;99.90;;;;;;5093619;28;20093;-72
2023/05/22 10:51:56;;;;;;;11.95;7.95;;;23.80;99.90;;;;;;5093643;28;20421;-72
2023/05/22 10:54:39;;;;;;;10.75;7.75;;;23.90;99.90;;;;;;5093629;28;20032;-72
2023/05/22 10:57:16;;;;;;;11.57;7.88;;;24.10;99.90;;;;;;5093595;28;20413;-71
2023/05/22 10:59:42;;;;;;;12.67;9.27;;;24.00;99.90;;;;;;5093455;28;20040;-73
2023/05/22 11:02:27;;;;;;;11.57;8.10;;;24.00;99.90;;;;;;5093932;28;20044;-72
2023/05/22 11:04:53;;;;;;;12.27;9.10;;;24.10;99.90;;;;;;5093565;28;20032;-72
2023/05/22 11:07:19;;;;;;;11.47;8.27;;;24.20;99.90;;;;;;5094008;28;20055;-72
2023/05/22 11:09:47;;;;;;;9.00;7.80;;;24.40;99.90;;;;;;5093535;28;20125;-71
2023/05/22 11:12:29;;;;;;;12.20;8.45;;;24.40;99.90;;;;;;5093427;28;20388;-72
2023/05/22 11:15:07;;;;;;;14.77;8.68;;;24.60;99.90;;;;;;5093368;28;20036;-71
2023/05/22 11:17:39;;;;;;;10.40;7.90;;;24.60;99.90;;;;;;5093159;28;20532;-73
2023/05/22 11:20:11;;;;;;;10.68;7.53;;;24.70;99.90;;;;;;5093378;28;20039;-72
2023/05/22 11:22:42;;;;;;;12.50;8.02;;;24.70;99.90;;;;;;5092342;28;20089;-72
2023/05/22 11:25:10;;;;;;;9.35;7.50;;;24.80;99.90;;;;;;5093309;28;20047;-72
2023/05/22 11:27:37;;;;;;;13.80;7.65;;;24.90;99.90;;;;;;5093347;28;20499;-71
2023/05/22 11:30:03;;;;;;;11.57;8.50;;;25.10;99.90;;;;;;5093310;28;20036;-72
2023/05/22 11:32:29;;;;;;;11.15;8.35;;;25.20;99.90;;;;;;5093327;28;20357;-72
2023/05/22 11:34:58;;;;;;;11.37;7.80;;;25.40;99.90;;;;;;5093264;28;20052;-72
2023/05/22 11:37:24;;;;;;;13.13;7.22;;;25.50;99.90;;;;;;5093320;28;20270;-71
2023/05/22 11:39:57;;;;;;;10.33;7.57;;;25.40;99.90;;;;;;5093091;28;20119;-72
2023/05/22 11:42:23;;;;;;;13.02;8.45;;;25.60;99.90;;;;;;5097007;28;20043;-72
2023/05/22 11:44:49;;;;;;;13.70;8.07;;;25.70;99.90;;;;;;5096699;28;20464;-72
2023/05/22 11:47:15;;;;;;;12.18;8.98;;;25.60;99.90;;;;;;5096894;28;20035;-72
2023/05/22 11:49:41;;;;;;;11.07;7.63;;;25.50;99.90;;;;;;5096914;28;20028;-73
2023/05/22 11:52:08;;;;;;;9.52;7.75;;;25.40;99.90;;;;;;5096894;28;20750;-72
2023/05/22 11:54:34;;;;;;;10.65;8.48;;;25.50;99.90;;;;;;5096761;28;20044;-72
2023/05/22 11:57:03;;;;;;;11.17;7.70;;;25.70;99.90;;;;;;5096802;28;20063;-73
2023/05/22 11:59:28;;;;;;;12.63;7.78;;;25.70;99.90;;;;;;5095541;28;20040;-72
2023/05/22 12:01:54;;;;;;;13.23;8.23;;;25.90;99.90;;;;;;5096618;28;20039;-73
2023/05/22 12:04:21;;;;;;;9.77;8.03;;;26.00;99.90;;;;;;5096653;28;20044;-72
2023/05/22 12:06:47;;;;;;;10.23;7.57;;;26.00;99.90;;;;;;5096942;28;20048;-72
2023/05/22 12:09:13;;;;;;;12.95;8.30;;;26.00;99.90;;;;;;5096200;28;20044;-72
2023/05/22 12:11:39;;;;;;;11.65;7.68;;;26.10;99.90;;;;;;5096510;28;20101;-71
2023/05/22 12:14:04;;;;;;;11.00;7.90;;;26.20;99.90;;;;;;5096437;28;20047;-72
2023/05/22 12:16:37;;;;;;;8.50;7.60;;;26.30;99.90;;;;;;5096322;28;20468;-72
2023/05/22 12:19:06;;;;;;;11.30;8.50;;;26.50;99.90;;;;;;5096461;28;20285;-72
2023/05/22 12:21:32;;;;;;;10.57;8.20;;;26.60;99.90;;;;;;5095872;28;20484;-72
2023/05/22 12:24:02;;;;;;;9.67;7.93;;;26.60;99.90;;;;;;5096156;28;20075;-72
2023/05/22 12:26:27;;;;;;;11.30;9.02;;;26.60;99.90;;;;;;5096126;28;20317;-72
2023/05/22 12:28:54;;;;;;;10.13;8.20;;;26.60;99.90;;;;;;5094911;28;20070;-73
2023/05/22 12:31:20;;;;;;;;;;;26.60;99.90;;;;;;5096546;28;20102;-72
2023/05/22 12:33:46;;;;;;;11.45;7.43;;;26.50;99.90;;;;;;5096117;28;19916;-72
2023/05/22 12:36:12;;;;;;;9.67;8.03;;;26.60;99.90;;;;;;5095948;28;20124;-72